Time;durP1;ratioP1;P1;durP2;ratioP2;P2;SDS_P1;SDS_P2;PMS_P1;PMS_P2;Temp;Humidity;BMP_temperature;BMP_pressure;BME280_temperature;BME280_humidity;BME280_pressure;Samples;Min_cycle;Max_cycle;Signal;HPM_P1;HPM_P2
2023/09/19 00:02:19;;;;;;;5.30;4.38;;;19.30;53.90;;;;;;5023157;28;20032;-68
2023/09/19 00:04:45;;;;;;;5.50;4.60;;;19.30;53.90;;;;;;5023139;28;20041;-68
2023/09/19 00:07:11;;;;;;;6.50;4.20;;;19.30;53.90;;;;;;5023437;28;20029;-69
2023/09/19 00:09:37;;;;;;;6.72;4.88;;;19.30;54.00;;;;;;5033053;28;20022;-68
2023/09/19 00:12:05;;;;;;;5.75;4.55;;;19.20;53.90;;;;;;5027275;28;20036;-70
2023/09/19 00:14:34;;;;;;;5.20;4.20;;;19.30;54.00;;;;;;5018609;28;20029;-69
2023/09/19 00:17:00;;;;;;;6.85;5.13;;;19.20;53.90;;;;;;5028355;28;20030;-68
2023/09/19 00:19:26;;;;;;;5.93;4.75;;;19.20;54.00;;;;;;5017586;28;20033;-68
2023/09/19 00:21:53;;;;;;;6.22;4.88;;;19.20;54.00;;;;;;5017794;28;20105;-68
2023/09/19 00:24:18;;;;;;;7.20;4.85;;;19.20;54.00;;;;;;5036574;28;20037;-68
2023/09/19 00:26:47;;;;;;;5.13;4.28;;;19.10;54.10;;;;;;5021258;28;20013;-69
2023/09/19 00:29:16;;;;;;;5.82;4.82;;;19.10;54.10;;;;;;5024736;28;20026;-69
2023/09/19 00:31:43;;;;;;;7.43;4.82;;;19.00;54.20;;;;;;5035195;28;20124;-69
2023/09/19 00:34:10;;;;;;;7.75;4.95;;;19.00;55.00;;;;;;5026907;28;20357;-69
2023/09/19 00:36:39;;;;;;;7.75;5.45;;;19.00;54.40;;;;;;5035452;28;20449;-68
2023/09/19 00:39:05;;;;;;;8.20;5.72;;;18.90;54.40;;;;;;5024575;28;20104;-69
2023/09/19 00:41:32;;;;;;;7.68;5.05;;;19.00;54.50;;;;;;5017943;28;20030;-72
2023/09/19 00:43:59;;;;;;;6.60;5.53;;;18.90;54.50;;;;;;5025137;28;20056;-72
2023/09/19 00:46:25;;;;;;;6.32;5.05;;;18.90;54.50;;;;;;5020481;28;20391;-70
2023/09/19 00:48:51;;;;;;;7.90;5.28;;;18.90;54.60;;;;;;5036745;28;20032;-70
2023/09/19 00:51:22;;;;;;;6.60;5.35;;;18.90;54.60;;;;;;5025350;28;20101;-69
2023/09/19 00:53:48;;;;;;;7.80;5.15;;;18.90;54.60;;;;;;5027035;28;20017;-69
2023/09/19 00:56:18;;;;;;;8.00;5.50;;;18.90;54.50;;;;;;5020825;28;20033;-70
2023/09/19 00:58:46;;;;;;;6.20;5.13;;;18.90;54.60;;;;;;5031741;28;20107;-70
2023/09/19 01:01:14;;;;;;;6.28;5.30;;;18.90;54.50;;;;;;5020532;28;20049;-71
2023/09/19 01:03:44;;;;;;;7.93;5.03;;;18.90;54.60;;;;;;5030812;28;20380;-70
2023/09/19 01:06:09;;;;;;;8.30;5.80;;;18.90;54.60;;;;;;5016785;28;20022;-69
2023/09/19 01:08:36;;;;;;;8.20;5.20;;;18.80;54.50;;;;;;5015312;28;20052;-70
2023/09/19 01:11:39;;;;;;;7.25;5.35;;;18.80;54.60;;;;;;5016537;28;20030;-68
2023/09/19 01:14:27;;;;;;;7.60;4.93;;;18.80;54.70;;;;;;5010464;28;20045;-69
2023/09/19 01:17:03;;;;;;;6.45;5.05;;;18.70;54.60;;;;;;5026621;28;20029;-68
2023/09/19 01:19:48;;;;;;;7.43;5.03;;;18.70;54.60;;;;;;5016413;28;20030;-69
2023/09/19 01:22:18;;;;;;;;;;;18.80;54.60;;;;;;5030794;28;20022;-68
2023/09/19 01:25:20;;;;;;;8.85;5.57;;;18.70;54.80;;;;;;5036264;28;19905;-69
2023/09/19 01:28:10;;;;;;;7.18;5.47;;;18.70;54.60;;;;;;5036191;28;20030;-68
2023/09/19 01:30:43;;;;;;;6.95;5.45;;;18.70;54.40;;;;;;5034878;28;20075;-68
2023/09/19 01:33:10;;;;;;;7.75;5.57;;;18.60;54.40;;;;;;5031577;28;20026;-68
2023/09/19 01:35:38;;;;;;;7.10;5.30;;;18.60;54.40;;;;;;5028150;28;20046;-68
2023/09/19 01:38:06;;;;;;;6.45;5.45;;;18.60;54.50;;;;;;5035583;28;20037;-68
2023/09/19 01:40:41;;;;;;;6.63;5.43;;;18.50;54.60;;;;;;5035568;28;20033;-68
2023/09/19 01:43:21;;;;;;;6.78;5.32;;;18.50;55.30;;;;;;5033111;28;20037;-68
2023/09/19 01:46:09;;;;;;;7.18;5.28;;;18.50;54.80;;;;;;5035726;28;20476;-68
2023/09/19 01:48:42;;;;;;;8.85;5.38;;;18.50;54.80;;;;;;5035503;28;20033;-68
2023/09/19 01:51:13;;;;;;;6.57;4.97;;;18.50;54.70;;;;;;5035712;28;20108;-68
2023/09/19 01:54:09;;;;;;;8.43;5.50;;;18.50;54.60;;;;;;5034932;28;20034;-69
2023/09/19 01:57:04;;;;;;;8.07;5.25;;;18.50;54.60;;;;;;5014764;28;20038;-69
2023/09/19 01:59:36;;;;;;;9.30;5.15;;;18.50;54.60;;;;;;5025116;28;20032;-69
2023/09/19 02:02:05;;;;;;;7.43;5.40;;;18.50;54.60;;;;;;5022263;28;20137;-69
2023/09/19 02:04:33;;;;;;;6.78;5.45;;;18.50;54.50;;;;;;5032969;28;20431;-69
2023/09/19 02:06:59;;;;;;;6.78;5.45;;;18.40;54.60;;;;;;5034050;28;20116;-69
2023/09/19 02:09:25;;;;;;;6.53;5.15;;;18.40;55.30;;;;;;5035583;28;20109;-69
2023/09/19 02:11:51;;;;;;;6.82;5.43;;;18.40;54.70;;;;;;5031061;28;20069;-69
2023/09/19 02:14:17;;;;;;;6.47;5.15;;;18.30;54.60;;;;;;5018644;28;20074;-69
2023/09/19 02:16:42;;;;;;;6.68;5.20;;;18.30;54.70;;;;;;5027319;28;20030;-69
2023/09/19 02:19:08;;;;;;;6.07;5.10;;;18.30;54.80;;;;;;5015134;28;20022;-69
2023/09/19 02:21:33;;;;;;;8.85;5.40;;;18.30;54.80;;;;;;5021725;28;20376;-70
2023/09/19 02:23:59;;;;;;;6.75;5.22;;;18.30;54.80;;;;;;5033110;28;20037;-70
2023/09/19 02:26:25;;;;;;;7.72;5.50;;;18.30;54.70;;;;;;5029305;28;20068;-69
2023/09/19 02:28:50;;;;;;;6.90;5.43;;;18.40;54.80;;;;;;5015770;28;20030;-68
2023/09/19 02:31:16;;;;;;;7.15;5.35;;;18.30;54.70;;;;;;5027915;28;20037;-69
2023/09/19 02:33:43;;;;;;;6.38;5.53;;;18.40;54.70;;;;;;5022076;28;20037;-70
2023/09/19 02:36:09;;;;;;;5.97;5.18;;;18.30;54.70;;;;;;5031214;28;20510;-69
2023/09/19 02:38:34;;;;;;;6.43;5.07;;;18.30;54.80;;;;;;5034719;28;20037;-69
2023/09/19 02:41:01;;;;;;;7.15;5.10;;;18.30;54.80;;;;;;5024325;28;20026;-69
2023/09/19 02:43:27;;;;;;;9.35;5.30;;;18.30;54.80;;;;;;5032322;28;20029;-70
2023/09/19 02:45:53;;;;;;;6.50;5.15;;;18.20;54.80;;;;;;5033591;28;20560;-70
2023/09/19 02:48:19;;;;;;;6.20;5.18;;;18.20;54.90;;;;;;5021758;28;20349;-70
2023/09/19 02:50:45;;;;;;;6.72;5.68;;;18.10;55.00;;;;;;5034489;28;20083;-70
2023/09/19 02:53:13;;;;;;;6.47;5.32;;;18.10;55.00;;;;;;5034458;28;20079;-70
2023/09/19 02:55:40;;;;;;;8.35;5.55;;;18.10;55.10;;;;;;5017688;28;20034;-69
2023/09/19 02:58:07;;;;;;;7.20;5.60;;;18.00;55.20;;;;;;5032893;28;20471;-70
2023/09/19 03:00:36;;;;;;;6.55;4.95;;;18.00;55.20;;;;;;5018597;28;20396;-70
2023/09/19 03:03:02;;;;;;;6.68;5.60;;;18.00;55.80;;;;;;5030448;28;20475;-71
2023/09/19 03:05:30;;;;;;;10.10;5.70;;;18.00;55.30;;;;;;5033891;28;20029;-70
2023/09/19 03:07:56;;;;;;;7.70;4.88;;;18.00;55.30;;;;;;5016007;28;20109;-70
2023/09/19 03:10:22;;;;;;;7.57;4.80;;;18.00;55.40;;;;;;5030498;28;20033;-71
2023/09/19 03:12:49;;;;;;;9.27;5.00;;;18.00;55.50;;;;;;5018104;28;20022;-70
2023/09/19 03:15:16;;;;;;;7.03;4.90;;;18.00;55.50;;;;;;5018738;28;20611;-70
2023/09/19 03:17:46;;;;;;;7.28;5.15;;;18.00;55.50;;;;;;5027815;28;20096;-70
2023/09/19 03:20:13;;;;;;;6.68;4.90;;;18.00;55.40;;;;;;5026562;28;20025;-70
2023/09/19 03:22:42;;;;;;;7.00;4.78;;;18.10;55.50;;;;;;5034213;28;20025;-70
2023/09/19 03:25:08;;;;;;;7.18;5.20;;;18.10;55.40;;;;;;5014967;28;20029;-70
2023/09/19 03:27:37;;;;;;;6.40;5.07;;;18.20;55.40;;;;;;5014284;28;20491;-70
2023/09/19 03:30:08;;;;;;;8.07;5.57;;;18.10;55.30;;;;;;5014047;28;20021;-70
2023/09/19 03:32:37;;;;;;;7.78;5.03;;;18.10;55.30;;;;;;5018093;28;20028;-70
2023/09/19 03:35:06;;;;;;;7.97;5.22;;;18.10;55.30;;;;;;5033234;28;20091;-70
2023/09/19 03:37:35;;;;;;;8.15;5.72;;;18.10;55.30;;;;;;5013316;28;20038;-70
2023/09/19 03:40:04;;;;;;;8.30;5.40;;;18.10;55.30;;;;;;5014116;28;20057;-70
2023/09/19 03:42:30;;;;;;;5.97;5.28;;;18.10;55.20;;;;;;5013886;28;20073;-70
2023/09/19 03:44:56;;;;;;;9.25;5.13;;;18.10;55.30;;;;;;5013314;28;20038;-70
2023/09/19 03:47:22;;;;;;;7.22;5.78;;;18.10;55.30;;;;;;5018653;28;20536;-70
2023/09/19 03:49:48;;;;;;;6.90;5.40;;;18.10;55.30;;;;;;5026013;28;20452;-72
2023/09/19 03:52:15;;;;;;;8.35;5.25;;;18.10;55.20;;;;;;5021356;28;20520;-71
2023/09/19 03:54:41;;;;;;;6.60;5.20;;;18.10;55.10;;;;;;5026308;28;20033;-70
2023/09/19 03:57:07;;;;;;;6.95;5.07;;;18.20;55.20;;;;;;5013761;28;20391;-69
2023/09/19 03:59:32;;;;;;;5.97;4.65;;;18.20;55.10;;;;;;5013783;28;20108;-70
2023/09/19 04:01:59;;;;;;;7.55;5.07;;;18.20;55.10;;;;;;5013768;28;20058;-71
2023/09/19 04:04:25;;;;;;;8.45;5.30;;;18.20;55.10;;;;;;5017452;28;20038;-69
2023/09/19 04:06:53;;;;;;;7.57;5.20;;;18.20;55.10;;;;;;5031094;28;20029;-69
2023/09/19 04:09:19;;;;;;;7.00;5.43;;;18.20;55.10;;;;;;5030481;28;20026;-70
2023/09/19 04:11:45;;;;;;;7.28;5.00;;;18.20;55.20;;;;;;5021504;28;20468;-70
2023/09/19 04:14:10;;;;;;;6.97;4.80;;;18.20;55.20;;;;;;5029434;28;20456;-69
2023/09/19 04:16:36;;;;;;;6.55;5.18;;;18.20;55.10;;;;;;5033273;28;20038;-70
2023/09/19 04:19:03;;;;;;;9.10;5.18;;;18.20;55.10;;;;;;5033382;28;20030;-69
2023/09/19 04:21:29;;;;;;;7.78;5.30;;;18.20;55.10;;;;;;5028767;28;20468;-71
2023/09/19 04:23:54;;;;;;;6.22;5.28;;;18.20;55.10;;;;;;5013300;28;20033;-70
2023/09/19 04:26:21;;;;;;;6.20;4.90;;;18.30;55.10;;;;;;5013522;28;20030;-71
2023/09/19 04:28:47;;;;;;;7.30;5.15;;;18.30;55.10;;;;;;5029402;28;20041;-70
2023/09/19 04:31:14;;;;;;;8.00;5.20;;;18.40;55.20;;;;;;5033664;28;20048;-71
2023/09/19 04:33:39;;;;;;;6.93;5.10;;;18.40;55.10;;;;;;5016815;28;20570;-73
2023/09/19 04:36:07;;;;;;;6.63;5.18;;;18.40;55.10;;;;;;5012112;28;20124;-73
2023/09/19 04:38:33;;;;;;;6.40;5.05;;;18.40;55.00;;;;;;5013250;28;20388;-71
2023/09/19 04:40:59;;;;;;;10.95;7.30;;;18.50;55.00;;;;;;5013562;28;20044;-71
2023/09/19 04:43:25;;;;;;;13.10;9.80;;;18.50;55.00;;;;;;5022877;28;20043;-72
2023/09/19 04:45:55;;;;;;;10.38;7.97;;;18.50;54.90;;;;;;5013371;28;20033;-72
2023/09/19 04:48:26;;;;;;;9.43;6.97;;;18.60;54.90;;;;;;5020956;28;20515;-72
2023/09/19 04:50:52;;;;;;;9.68;6.78;;;18.60;54.90;;;;;;5032911;28;20037;-71
2023/09/19 04:53:20;;;;;;;8.07;5.90;;;18.60;54.80;;;;;;5021179;28;20029;-71
2023/09/19 04:55:50;;;;;;;8.20;5.60;;;18.60;54.80;;;;;;5032522;28;20087;-71
2023/09/19 04:58:16;;;;;;;6.55;5.10;;;18.70;55.40;;;;;;5041729;28;20055;-72
2023/09/19 05:00:42;;;;;;;14.93;8.65;;;18.70;54.70;;;;;;5045221;28;20403;-72
2023/09/19 05:03:08;;;;;;;9.77;5.88;;;18.70;55.00;;;;;;5043469;28;20030;-73
2023/09/19 05:05:34;;;;;;;6.90;5.20;;;18.80;55.00;;;;;;5043663;28;20021;-74
2023/09/19 05:08:00;;;;;;;6.75;5.03;;;18.80;54.90;;;;;;5046732;28;20047;-73
2023/09/19 05:10:26;;;;;;;6.40;5.18;;;18.90;54.80;;;;;;5046223;28;20025;-73
2023/09/19 05:12:54;;;;;;;7.22;4.72;;;18.90;54.80;;;;;;5045064;28;20026;-72
2023/09/19 05:15:20;;;;;;;6.80;5.25;;;18.90;54.80;;;;;;5041606;28;20033;-71
2023/09/19 05:17:54;;;;;;;7.50;4.68;;;19.00;54.70;;;;;;5028324;28;20092;-71
2023/09/19 05:20:29;;;;;;;;;;;19.00;54.70;;;;;;5016722;28;20022;-71
2023/09/19 05:22:58;;;;;;;;;;;19.00;54.80;;;;;;5015348;28;19905;-71
2023/09/19 05:25:24;;;;;;;6.07;4.60;;;19.00;54.70;;;;;;5016400;28;20271;-71
2023/09/19 05:27:53;;;;;;;6.65;4.60;;;19.10;54.50;;;;;;5016082;28;20017;-71
2023/09/19 05:30:20;;;;;;;6.05;4.75;;;19.10;54.50;;;;;;5014443;28;20026;-72
2023/09/19 05:32:45;;;;;;;5.97;4.80;;;19.10;54.60;;;;;;5016068;28;20026;-71
2023/09/19 05:35:13;;;;;;;8.05;4.43;;;19.10;54.60;;;;;;5014716;28;20096;-72
2023/09/19 05:37:39;;;;;;;7.88;4.75;;;19.10;54.60;;;;;;5014724;28;20388;-72
2023/09/19 05:40:09;;;;;;;5.47;4.53;;;19.20;54.70;;;;;;5016257;28;20025;-73
2023/09/19 05:42:35;;;;;;;7.32;5.05;;;19.20;54.70;;;;;;5015956;28;20054;-73
2023/09/19 05:45:00;;;;;;;7.20;4.70;;;19.30;54.70;;;;;;5015607;28;20065;-72
2023/09/19 05:47:26;;;;;;;6.80;4.75;;;19.30;54.70;;;;;;5015635;28;20029;-72
2023/09/19 05:49:52;;;;;;;6.30;4.80;;;19.40;54.70;;;;;;5015879;28;20033;-71
2023/09/19 05:52:18;;;;;;;5.55;3.92;;;19.40;54.80;;;;;;5026415;28;20352;-72
2023/09/19 05:54:44;;;;;;;7.15;4.57;;;19.40;54.70;;;;;;5016514;28;20030;-74
2023/09/19 05:57:12;;;;;;;6.32;4.57;;;19.50;54.80;;;;;;5021502;28;20029;-71
2023/09/19 05:59:39;;;;;;;5.45;4.30;;;19.50;54.70;;;;;;5017537;28;20031;-70
2023/09/19 06:02:06;;;;;;;34.55;12.38;;;19.50;54.70;;;;;;5017232;28;20042;-72
2023/09/19 06:04:32;;;;;;;28.48;10.32;;;19.60;55.20;;;;;;5038907;28;20392;-74
2023/09/19 06:06:58;;;;;;;20.05;10.02;;;19.70;55.70;;;;;;5023503;28;20025;-74
2023/09/19 06:09:23;;;;;;;21.05;9.95;;;19.80;56.10;;;;;;5035129;28;20060;-74
2023/09/19 06:11:49;;;;;;;15.32;7.53;;;19.90;56.40;;;;;;5019515;28;20026;-75
2023/09/19 06:14:17;;;;;;;16.23;9.32;;;20.10;56.40;;;;;;5015648;28;20025;-71
2023/09/19 06:16:43;;;;;;;13.35;6.88;;;20.20;56.30;;;;;;5015631;28;20392;-72
2023/09/19 06:19:09;;;;;;;10.95;6.32;;;20.30;56.30;;;;;;5015167;28;20036;-73
2023/09/19 06:21:36;;;;;;;10.50;6.03;;;20.40;56.30;;;;;;5015044;28;20113;-72
2023/09/19 06:24:02;;;;;;;8.18;5.60;;;20.60;56.30;;;;;;5015319;28;20092;-72
2023/09/19 06:26:29;;;;;;;8.57;5.45;;;20.70;56.20;;;;;;5015131;28;20034;-72
2023/09/19 06:28:55;;;;;;;8.63;5.65;;;20.80;56.20;;;;;;5015484;28;20018;-72
2023/09/19 06:31:22;;;;;;;9.38;4.80;;;20.90;56.00;;;;;;5025100;28;20022;-73
2023/09/19 06:33:48;;;;;;;6.20;4.03;;;20.90;55.80;;;;;;5033350;28;20460;-73
2023/09/19 06:36:15;;;;;;;6.53;4.35;;;21.10;55.50;;;;;;5017461;28;20034;-73
2023/09/19 06:38:40;;;;;;;8.70;4.55;;;21.10;55.50;;;;;;5015011;28;20037;-73
2023/09/19 06:41:09;;;;;;;5.78;4.13;;;21.20;56.10;;;;;;5015024;28;20080;-72
2023/09/19 06:43:35;;;;;;;5.50;3.78;;;21.30;55.30;;;;;;5016697;28;20034;-72
2023/09/19 06:46:01;;;;;;;5.85;4.20;;;21.40;55.20;;;;;;5042486;28;20103;-72
2023/09/19 06:48:29;;;;;;;5.60;3.70;;;21.50;55.20;;;;;;5054132;28;20032;-72
2023/09/19 06:50:55;;;;;;;5.47;3.58;;;21.50;55.00;;;;;;5037676;28;20058;-72
2023/09/19 06:53:23;;;;;;;9.05;3.80;;;21.60;54.90;;;;;;5034336;28;20021;-71
2023/09/19 06:55:50;;;;;;;5.88;3.25;;;21.70;54.90;;;;;;5034414;28;20361;-71
2023/09/19 06:58:16;;;;;;;4.05;3.40;;;21.70;54.50;;;;;;5031618;28;20522;-72
2023/09/19 07:00:42;;;;;;;6.65;3.50;;;21.80;54.40;;;;;;5031567;28;20468;-72
2023/09/19 07:03:11;;;;;;;9.27;4.30;;;21.90;54.40;;;;;;5025225;28;20087;-72
2023/09/19 07:05:38;;;;;;;4.22;3.38;;;21.90;54.20;;;;;;5034237;28;20041;-71
2023/09/19 07:08:09;;;;;;;4.65;3.30;;;22.00;54.20;;;;;;5023548;28;20041;-72
2023/09/19 07:10:35;;;;;;;4.80;3.53;;;22.10;53.90;;;;;;5027467;28;20064;-70
2023/09/19 07:13:02;;;;;;;4.15;2.92;;;22.20;53.80;;;;;;5041123;28;20432;-70
2023/09/19 07:15:33;;;;;;;4.75;3.10;;;22.20;53.40;;;;;;5035669;28;20120;-70
2023/09/19 07:18:00;;;;;;;3.67;3.08;;;22.20;53.30;;;;;;5032931;28;20029;-70
2023/09/19 07:20:27;;;;;;;4.05;3.08;;;22.30;53.30;;;;;;5022023;28;20036;-71
2023/09/19 07:22:54;;;;;;;4.82;3.20;;;22.30;53.20;;;;;;5017825;28;20064;-69
2023/09/19 07:25:21;;;;;;;6.47;5.32;;;22.40;53.10;;;;;;5028667;28;20053;-75
2023/09/19 07:27:46;;;;;;;3.92;2.90;;;22.40;52.90;;;;;;5032428;28;20029;-74
2023/09/19 07:30:12;;;;;;;4.82;2.80;;;22.40;52.70;;;;;;5023041;28;20083;-75
2023/09/19 07:32:40;;;;;;;3.53;2.67;;;22.50;52.60;;;;;;5018022;28;20120;-74
2023/09/19 07:35:06;;;;;;;4.25;2.63;;;22.50;52.40;;;;;;5013129;28;20034;-72
2023/09/19 07:37:35;;;;;;;6.45;2.85;;;22.60;52.40;;;;;;5014063;28;20173;-72
2023/09/19 07:40:06;;;;;;;3.65;2.80;;;22.60;52.30;;;;;;5031234;28;20035;-74
2023/09/19 07:42:36;;;;;;;2.83;2.28;;;22.60;52.20;;;;;;5030124;28;20032;-74
2023/09/19 07:45:02;;;;;;;3.83;2.72;;;22.70;52.20;;;;;;5032500;28;20068;-74
2023/09/19 07:47:30;;;;;;;3.15;2.60;;;22.70;52.10;;;;;;5032028;28;20030;-74
2023/09/19 07:49:55;;;;;;;3.00;2.30;;;22.70;51.90;;;;;;5030472;28;20026;-74
2023/09/19 07:52:22;;;;;;;3.08;2.58;;;22.80;51.80;;;;;;5024029;28;20053;-74
2023/09/19 07:54:49;;;;;;;2.75;2.50;;;22.80;51.70;;;;;;5032469;28;20040;-74
2023/09/19 07:57:15;;;;;;;4.22;2.33;;;22.80;51.60;;;;;;5032879;28;20044;-74
2023/09/19 07:59:42;;;;;;;2.63;2.30;;;22.80;51.50;;;;;;5032274;28;20037;-74
2023/09/19 08:02:09;;;;;;;2.55;2.30;;;22.90;51.40;;;;;;5022487;28;20051;-74
2023/09/19 08:04:35;;;;;;;2.38;2.17;;;22.90;51.30;;;;;;5024250;28;20081;-74
2023/09/19 08:07:03;;;;;;;2.50;2.30;;;22.90;51.20;;;;;;5027054;28;20061;-74
2023/09/19 08:09:33;;;;;;;2.33;2.10;;;22.90;51.10;;;;;;5031542;28;20022;-74
2023/09/19 08:11:59;;;;;;;3.38;1.90;;;23.00;51.10;;;;;;5022264;28;20017;-73
2023/09/19 08:14:25;;;;;;;2.50;2.30;;;23.00;51.00;;;;;;5031960;28;20029;-74
2023/09/19 08:16:51;;;;;;;2.78;2.50;;;23.00;50.90;;;;;;5017338;28;20050;-74
2023/09/19 08:19:17;;;;;;;4.00;2.47;;;23.00;50.80;;;;;;5013689;28;20431;-74
2023/09/19 08:21:47;;;;;;;2.90;2.60;;;23.10;50.70;;;;;;5014010;28;20033;-75
2023/09/19 08:24:14;;;;;;;2.70;2.40;;;23.10;50.70;;;;;;5013302;28;20384;-74
2023/09/19 08:26:40;;;;;;;2.90;2.60;;;23.10;50.70;;;;;;5013592;28;20029;-74
2023/09/19 08:29:11;;;;;;;2.55;2.17;;;23.10;50.60;;;;;;5028827;28;20096;-73
2023/09/19 08:31:37;;;;;;;2.90;2.60;;;23.20;50.50;;;;;;5036016;28;20124;-73
2023/09/19 08:34:03;;;;;;;3.33;2.65;;;23.20;50.30;;;;;;5035579;28;20029;-73
2023/09/19 08:36:28;;;;;;;3.67;2.55;;;23.20;50.20;;;;;;5037001;28;20048;-73
2023/09/19 08:38:54;;;;;;;2.90;2.58;;;23.20;50.10;;;;;;5036958;28;20037;-73
2023/09/19 08:41:20;;;;;;;2.97;2.47;;;23.20;50.00;;;;;;5033123;28;20026;-73
2023/09/19 08:43:46;;;;;;;2.72;2.28;;;23.30;50.00;;;;;;5016695;28;20026;-74
2023/09/19 08:46:15;;;;;;;3.20;2.40;;;23.30;49.90;;;;;;5016666;28;20480;-73
2023/09/19 08:49:01;;;;;;;4.38;2.35;;;23.30;49.80;;;;;;5016807;28;20022;-74
2023/09/19 08:51:39;;;;;;;2.55;2.35;;;23.30;49.70;;;;;;5024987;28;20038;-74
2023/09/19 08:54:11;;;;;;;3.72;2.40;;;23.30;49.80;;;;;;5036999;28;20415;-73
2023/09/19 08:56:39;;;;;;;2.78;2.58;;;23.30;49.60;;;;;;5035942;28;20033;-74
2023/09/19 08:59:09;;;;;;;3.47;2.50;;;23.30;50.20;;;;;;5035641;28;20067;-74
2023/09/19 09:01:37;;;;;;;2.22;2.03;;;23.30;49.50;;;;;;5036381;28;20556;-74
2023/09/19 09:04:03;;;;;;;2.50;2.25;;;23.40;49.40;;;;;;5029096;28;20037;-74
2023/09/19 09:06:32;;;;;;;3.33;2.40;;;23.30;49.20;;;;;;5031008;28;20083;-74
2023/09/19 09:08:58;;;;;;;3.90;2.47;;;23.30;49.20;;;;;;5019175;28;20447;-74
2023/09/19 09:11:24;;;;;;;2.08;1.98;;;23.40;49.20;;;;;;5014914;28;20062;-74
2023/09/19 09:13:50;;;;;;;2.83;2.47;;;23.40;48.90;;;;;;5016378;28;20030;-74
2023/09/19 09:16:18;;;;;;;2.83;2.50;;;23.50;48.80;;;;;;5015954;28;20493;-74
2023/09/19 09:18:45;;;;;;;3.10;2.50;;;23.40;48.80;;;;;;5027614;28;20038;-74
2023/09/19 09:21:14;;;;;;;2.97;2.45;;;23.50;48.70;;;;;;5035572;28;20087;-74
2023/09/19 09:23:40;;;;;;;2.65;2.45;;;23.50;48.60;;;;;;5024346;28;20025;-74
2023/09/19 09:26:07;;;;;;;2.83;2.40;;;23.50;48.20;;;;;;5016132;28;20026;-74
2023/09/19 09:28:35;;;;;;;4.03;2.60;;;23.50;48.20;;;;;;5027075;28;20492;-74
2023/09/19 09:31:19;;;;;;;2.42;2.22;;;23.60;48.20;;;;;;5019425;28;20472;-73
2023/09/19 09:33:53;;;;;;;;;;;23.60;48.10;;;;;;5015244;28;20049;-74
2023/09/19 09:36:37;;;;;;;2.10;1.98;;;23.60;47.40;;;;;;5017179;28;20036;-74
2023/09/19 09:39:19;;;;;;;3.00;2.20;;;23.60;47.90;;;;;;5016940;28;20442;-74
2023/09/19 09:41:45;;;;;;;2.75;2.25;;;23.60;48.10;;;;;;5015803;28;20248;-75
2023/09/19 09:44:17;;;;;;;2.55;2.35;;;23.60;48.70;;;;;;5015983;28;20372;-74
2023/09/19 09:52:08;;;;;;;2.78;2.58;;;23.70;47.90;;;;;;5031101;28;20099;-74
2023/09/19 09:54:38;;;;;;;2.72;2.30;;;23.70;47.80;;;;;;5017826;28;20491;-73
2023/09/19 09:57:16;;;;;;;3.33;2.42;;;23.70;47.80;;;;;;5022314;28;20056;-73
2023/09/19 09:59:46;;;;;;;2.30;2.10;;;23.70;47.70;;;;;;5018746;28;20037;-74
2023/09/19 10:02:23;;;;;;;2.70;2.40;;;23.80;47.80;;;;;;5017456;28;20754;-73
2023/09/19 10:05:40;;;;;;;2.55;2.33;;;23.80;47.80;;;;;;5035083;28;20490;-74
2023/09/19 10:07:41;;;;;;;3.17;2.50;;;23.80;47.70;;;;;;5037285;28;20037;-74
2023/09/19 10:10:16;;;;;;;3.38;2.30;;;23.80;47.70;;;;;;5034151;28;20026;-73
2023/09/19 10:12:48;;;;;;;2.53;2.33;;;23.80;47.70;;;;;;5035254;28;20049;-73
2023/09/19 10:15:20;;;;;;;3.28;2.15;;;23.80;47.60;;;;;;5023666;28;20480;-74
2023/09/19 10:17:47;;;;;;;4.22;2.65;;;23.80;47.50;;;;;;5015462;28;20136;-73
2023/09/19 10:23:00;;;;;;;4.10;2.50;;;23.90;47.30;;;;;;5015569;28;20037;-74
2023/09/19 10:25:30;;;;;;;2.70;2.38;;;23.90;47.10;;;;;;5015121;28;20041;-73
2023/09/19 10:28:02;;;;;;;3.17;2.53;;;23.90;47.00;;;;;;5014285;28;20115;-73
2023/09/19 10:30:30;;;;;;;2.95;2.30;;;23.90;46.90;;;;;;5015166;28;20457;-74
2023/09/19 10:33:05;;;;;;;3.47;2.60;;;23.90;46.80;;;;;;5014940;28;20463;-74
2023/09/19 10:35:32;;;;;;;3.33;2.60;;;24.00;46.80;;;;;;5014929;28;20033;-73
2023/09/19 10:38:01;;;;;;;2.72;2.30;;;24.00;46.70;;;;;;5013746;28;20054;-74
2023/09/19 10:40:32;;;;;;;3.60;2.63;;;24.00;46.60;;;;;;5034664;28;20025;-75
2023/09/19 10:43:07;;;;;;;2.88;2.67;;;24.00;46.30;;;;;;5034447;28;20033;-74
2023/09/19 10:45:34;;;;;;;2.92;2.45;;;24.10;46.00;;;;;;5033592;28;20527;-74
2023/09/19 10:48:05;;;;;;;2.92;2.60;;;24.10;46.30;;;;;;5021401;28;20029;-74
2023/09/19 10:50:36;;;;;;;3.88;2.35;;;24.10;46.30;;;;;;5026145;28;20029;-74
2023/09/19 10:53:07;;;;;;;3.35;2.60;;;24.10;46.20;;;;;;5024643;28;20105;-74
2023/09/19 10:55:35;;;;;;;3.28;2.58;;;24.10;46.10;;;;;;5013702;28;20030;-75
2023/09/19 10:58:09;;;;;;;2.45;2.22;;;24.20;46.20;;;;;;5013292;28;20026;-75
2023/09/19 11:00:51;;;;;;;3.70;2.50;;;24.20;46.10;;;;;;5015312;28;20062;-75
2023/09/19 11:03:19;;;;;;;2.50;2.30;;;24.20;45.80;;;;;;5029367;28;20029;-75
2023/09/19 11:06:05;;;;;;;2.75;2.47;;;24.20;45.90;;;;;;5018035;28;20033;-74
2023/09/19 11:11:46;;;;;;;3.22;2.75;;;24.30;45.40;;;;;;5023552;28;20394;-74
2023/09/19 11:14:23;;;;;;;3.33;2.70;;;24.30;45.50;;;;;;5015211;28;20117;-75
2023/09/19 11:17:13;;;;;;;3.42;2.40;;;24.40;45.60;;;;;;5012825;28;20033;-74
2023/09/19 11:22:51;;;;;;;2.63;2.40;;;24.50;45.30;;;;;;5033052;28;20045;-73
2023/09/19 11:25:34;;;;;;;3.38;2.80;;;24.50;45.40;;;;;;5029022;28;20018;-73
2023/09/19 11:28:05;;;;;;;3.13;2.65;;;24.50;45.00;;;;;;5028215;28;20029;-75
2023/09/19 11:30:36;;;;;;;3.50;2.70;;;24.50;45.30;;;;;;5022725;28;20026;-75
2023/09/19 11:33:28;;;;;;;3.97;2.60;;;24.50;45.30;;;;;;5021674;28;20080;-73
2023/09/19 11:36:14;;;;;;;3.75;2.65;;;24.60;44.80;;;;;;5024153;28;20038;-75
2023/09/19 11:38:49;;;;;;;3.25;2.60;;;24.60;45.10;;;;;;5025182;28;20122;-76
2023/09/19 11:41:28;;;;;;;3.03;2.53;;;24.70;45.20;;;;;;5013216;28;20539;-75
2023/09/19 11:44:16;;;;;;;4.60;2.78;;;24.70;45.10;;;;;;5023196;28;20521;-76
2023/09/19 11:46:53;;;;;;;3.65;2.63;;;24.70;44.60;;;;;;5045121;28;20029;-76
2023/09/19 11:49:29;;;;;;;7.40;2.88;;;24.80;44.80;;;;;;5013800;28;20026;-74
2023/09/19 11:51:56;;;;;;;7.00;3.05;;;24.80;44.90;;;;;;5019361;28;20530;-73
2023/09/19 11:54:22;;;;;;;5.38;2.83;;;24.80;44.60;;;;;;5026666;28;20028;-77
2023/09/19 11:56:54;;;;;;;5.28;2.88;;;24.90;44.60;;;;;;5016810;28;20446;-76
2023/09/19 11:59:22;;;;;;;3.95;2.80;;;24.90;43.60;;;;;;5015673;28;20472;-76
2023/09/19 12:02:02;;;;;;;3.42;2.60;;;24.90;44.30;;;;;;5032221;28;20049;-76
2023/09/19 12:04:43;;;;;;;3.20;2.60;;;24.90;44.20;;;;;;5015122;28;20392;-75
2023/09/19 12:07:15;;;;;;;5.53;2.70;;;25.00;44.00;;;;;;5030160;28;20025;-77
2023/09/19 12:09:47;;;;;;;2.97;2.67;;;25.00;44.60;;;;;;5028131;28;20025;-76
2023/09/19 12:12:20;;;;;;;4.50;2.78;;;25.00;43.80;;;;;;5028563;28;20030;-75
2023/09/19 12:14:50;;;;;;;5.22;2.60;;;25.00;43.70;;;;;;5037441;28;20033;-75
2023/09/19 12:17:18;;;;;;;5.03;2.80;;;25.00;43.80;;;;;;5037073;28;20475;-75
2023/09/19 12:19:55;;;;;;;4.80;2.30;;;25.10;43.80;;;;;;5035610;28;20029;-75
2023/09/19 12:22:21;;;;;;;3.03;2.67;;;25.10;43.60;;;;;;5037461;28;20030;-75
2023/09/19 12:24:47;;;;;;;4.55;2.97;;;25.00;43.60;;;;;;5034850;28;20080;-74
2023/09/19 12:27:13;;;;;;;4.70;2.72;;;25.10;43.50;;;;;;5027068;28;20029;-74
2023/09/19 12:29:49;;;;;;;5.78;2.80;;;25.00;43.50;;;;;;5055929;28;20025;-73
2023/09/19 12:32:21;;;;;;;3.53;2.80;;;25.10;43.60;;;;;;5056734;28;20029;-73
2023/09/19 12:34:54;;;;;;;4.18;2.83;;;25.10;43.60;;;;;;5057107;28;20067;-73
2023/09/19 12:37:29;;;;;;;3.20;2.90;;;25.10;43.50;;;;;;5057041;28;20056;-74
2023/09/19 12:40:17;;;;;;;3.72;2.63;;;25.10;43.40;;;;;;5055673;28;20021;-71
2023/09/19 12:42:45;;;;;;;3.78;2.65;;;25.10;43.30;;;;;;5028547;28;20115;-73
2023/09/19 12:45:13;;;;;;;4.70;2.80;;;25.10;43.40;;;;;;5028899;28;20037;-73
2023/09/19 12:47:40;;;;;;;4.05;2.70;;;25.10;43.90;;;;;;5031944;28;20057;-73
2023/09/19 12:50:13;;;;;;;3.70;2.45;;;25.20;43.30;;;;;;5023088;28;20396;-73
2023/09/19 12:52:40;;;;;;;2.83;2.50;;;25.30;43.30;;;;;;5019374;28;20022;-73
2023/09/19 12:55:10;;;;;;;2.58;2.38;;;25.30;43.30;;;;;;5016787;28;20523;-73
2023/09/19 12:57:36;;;;;;;5.35;2.92;;;25.40;43.30;;;;;;5016863;28;20034;-72
2023/09/19 13:00:06;;;;;;;4.32;2.92;;;25.40;43.10;;;;;;5016608;28;20048;-73
2023/09/19 13:02:32;;;;;;;3.40;2.75;;;25.50;43.10;;;;;;5017165;28;20060;-74
2023/09/19 13:05:00;;;;;;;3.72;2.70;;;25.50;43.00;;;;;;5017120;28;20056;-72
2023/09/19 13:07:49;;;;;;;4.82;3.15;;;25.60;42.90;;;;;;5034148;28;20053;-73
2023/09/19 13:10:16;;;;;;;3.03;2.60;;;25.70;42.00;;;;;;5036509;28;20033;-74
2023/09/19 13:12:47;;;;;;;3.30;2.50;;;25.80;42.70;;;;;;5036032;28;20445;-74
2023/09/19 13:15:16;;;;;;;4.50;2.72;;;25.90;42.70;;;;;;5034541;28;20041;-72